Time;durP1;ratioP1;P1;durP2;ratioP2;P2;SDS_P1;SDS_P2;PMS_P1;PMS_P2;Temp;Humidity;BMP_temperature;BMP_pressure;BME280_temperature;BME280_humidity;BME280_pressure;Samples;Min_cycle;Max_cycle;Signal;HPM_P1;HPM_P2
2023/05/01 00:00:09;;;;;;;10.40;4.03;;;8.40;99.90;;;;;;5094935;28;20458;-79
2023/05/01 00:02:35;;;;;;;8.25;3.88;;;8.40;99.90;;;;;;5095053;28;20040;-80
2023/05/01 00:05:01;;;;;;;10.00;4.68;;;8.40;99.90;;;;;;5093755;28;20131;-80
2023/05/01 00:07:30;;;;;;;9.57;4.68;;;8.30;99.90;;;;;;5094890;28;20032;-81
2023/05/01 00:09:56;;;;;;;8.95;4.32;;;8.30;99.90;;;;;;5094930;28;20040;-81
2023/05/01 00:12:22;;;;;;;8.02;4.40;;;8.30;99.90;;;;;;5095065;28;20043;-80
2023/05/01 00:14:49;;;;;;;8.00;4.43;;;8.30;99.90;;;;;;5094728;28;20048;-80
2023/05/01 00:17:15;;;;;;;7.00;3.70;;;8.20;99.90;;;;;;5094717;28;20032;-80
2023/05/01 00:19:40;;;;;;;6.85;4.13;;;8.20;99.90;;;;;;5093404;28;20430;-81
2023/05/01 00:22:06;;;;;;;9.32;4.78;;;8.20;99.90;;;;;;5094658;28;20052;-80
2023/05/01 00:24:33;;;;;;;9.23;4.55;;;8.20;99.90;;;;;;5094534;28;20048;-80
2023/05/01 00:26:58;;;;;;;10.35;4.85;;;8.10;99.90;;;;;;5094660;28;20048;-80
2023/05/01 00:29:24;;;;;;;8.50;4.07;;;8.10;99.90;;;;;;5094582;28;20047;-80
2023/05/01 00:31:50;;;;;;;9.98;4.40;;;8.10;99.90;;;;;;5093175;28;20051;-80
2023/05/01 00:34:16;;;;;;;7.93;4.63;;;8.00;99.90;;;;;;5093189;28;20123;-80
2023/05/01 00:36:41;;;;;;;8.02;4.22;;;8.00;99.90;;;;;;5094469;28;20036;-80
2023/05/01 00:39:07;;;;;;;8.60;4.90;;;8.00;99.90;;;;;;5093391;28;20470;-80
2023/05/01 00:41:34;;;;;;;10.70;4.55;;;7.90;99.90;;;;;;5094410;28;20172;-80
2023/05/01 00:44:00;;;;;;;9.70;5.03;;;8.00;99.90;;;;;;5094177;28;20048;-80
2023/05/01 00:46:30;;;;;;;7.72;4.55;;;8.00;99.90;;;;;;5094329;28;20055;-80
2023/05/01 00:48:57;;;;;;;9.80;4.90;;;7.90;99.90;;;;;;5094246;28;20047;-80
2023/05/01 00:51:23;;;;;;;7.60;4.90;;;7.90;99.90;;;;;;5094096;28;20429;-80
2023/05/01 00:53:49;;;;;;;9.23;4.70;;;7.90;99.90;;;;;;5094653;28;20040;-80
2023/05/01 00:56:15;;;;;;;9.75;5.18;;;7.80;99.90;;;;;;5093832;28;20510;-80
2023/05/01 00:58:41;;;;;;;10.77;5.03;;;7.80;99.90;;;;;;5092627;28;20070;-80
2023/05/01 01:01:09;;;;;;;10.40;5.10;;;7.80;99.90;;;;;;5094095;28;20066;-80
2023/05/01 01:03:35;;;;;;;9.07;5.00;;;7.80;99.90;;;;;;5092759;28;20048;-80
2023/05/01 01:06:13;;;;;;;11.05;5.43;;;7.80;99.90;;;;;;5093966;28;20032;-80
2023/05/01 01:09:30;;;;;;;10.43;5.25;;;7.80;99.90;;;;;;5094020;28;20048;-81
2023/05/01 01:12:19;;;;;;;12.23;4.80;;;7.70;99.90;;;;;;5059644;28;20044;-81
2023/05/01 01:15:04;;;;;;;10.15;4.63;;;7.70;99.90;;;;;;5093839;28;20071;-79
2023/05/01 01:18:01;;;;;;;10.55;5.00;;;7.70;99.90;;;;;;5093948;28;20098;-81
2023/05/01 01:20:36;;;;;;;12.20;5.22;;;7.60;99.90;;;;;;5093660;28;20046;-80
2023/05/01 01:23:35;;;;;;;10.65;5.38;;;7.60;99.90;;;;;;5092641;28;20509;-80
2023/05/01 01:26:01;;;;;;;8.90;5.38;;;7.60;99.90;;;;;;5093603;28;20399;-80
2023/05/01 01:29:11;;;;;;;10.90;5.10;;;7.50;99.90;;;;;;5093815;28;20048;-80
2023/05/01 01:31:55;;;;;;;11.00;5.22;;;7.50;99.90;;;;;;5093680;28;20036;-80
2023/05/01 01:34:31;;;;;;;8.40;5.25;;;7.50;99.90;;;;;;5093580;28;20051;-80
2023/05/01 01:37:12;;;;;;;9.40;4.95;;;7.40;99.90;;;;;;5093646;28;20055;-80
2023/05/01 01:39:46;;;;;;;10.23;4.78;;;7.40;99.90;;;;;;5094068;28;20055;-80
2023/05/01 01:42:18;;;;;;;12.10;5.22;;;7.40;99.90;;;;;;5093850;28;20055;-80
2023/05/01 01:44:51;;;;;;;8.98;4.88;;;7.40;99.90;;;;;;5093538;28;20392;-80
2023/05/01 01:47:19;;;;;;;11.90;5.45;;;7.30;99.90;;;;;;5092527;28;20048;-80
2023/05/01 01:49:48;;;;;;;10.38;5.05;;;7.30;99.90;;;;;;5095121;28;20048;-80
2023/05/01 01:52:16;;;;;;;10.20;5.25;;;7.30;99.90;;;;;;5097620;28;20074;-80
2023/05/01 01:55:00;;;;;;;12.55;5.63;;;7.30;99.90;;;;;;5097486;28;20177;-80
2023/05/01 01:57:28;;;;;;;11.55;5.15;;;7.20;99.90;;;;;;5096530;28;20040;-80
2023/05/01 01:59:55;;;;;;;10.15;5.50;;;7.20;99.90;;;;;;5097435;28;20048;-80
2023/05/01 02:02:22;;;;;;;11.68;5.30;;;7.20;99.90;;;;;;5097833;28;20462;-80
2023/05/01 02:04:50;;;;;;;12.80;5.72;;;7.20;99.90;;;;;;5097168;28;20365;-80
2023/05/01 02:07:17;;;;;;;12.95;5.63;;;7.20;99.90;;;;;;5097309;28;20112;-79
2023/05/01 02:09:44;;;;;;;13.10;5.80;;;7.10;99.90;;;;;;5097350;28;20044;-79
2023/05/01 02:12:11;;;;;;;12.32;5.43;;;7.10;99.90;;;;;;5097253;28;20132;-79
2023/05/01 02:14:39;;;;;;;9.90;5.22;;;7.10;99.90;;;;;;5097084;28;20043;-80
2023/05/01 02:17:07;;;;;;;10.10;5.45;;;7.10;99.90;;;;;;5097129;28;20052;-80
2023/05/01 02:19:33;;;;;;;10.35;5.32;;;7.10;99.90;;;;;;5097171;28;20115;-80
2023/05/01 02:22:01;;;;;;;11.88;6.30;;;7.00;99.90;;;;;;5095946;28;20052;-80
2023/05/01 02:24:29;;;;;;;11.43;5.97;;;7.00;99.90;;;;;;5095426;28;20518;-80
2023/05/01 02:27:14;;;;;;;11.65;5.60;;;7.00;99.90;;;;;;5096975;28;20079;-80
2023/05/01 02:29:40;;;;;;;11.13;5.50;;;7.10;99.90;;;;;;5097031;28;20121;-80
2023/05/01 02:32:06;;;;;;;13.45;6.28;;;7.00;99.90;;;;;;5096929;28;20071;-81
2023/05/01 02:34:34;;;;;;;11.38;5.90;;;7.10;99.90;;;;;;5096813;28;20040;-81
2023/05/01 02:37:00;;;;;;;11.98;5.75;;;7.00;99.90;;;;;;5096888;28;20048;-81
2023/05/01 02:39:26;;;;;;;17.33;5.80;;;7.00;99.90;;;;;;5095516;28;20048;-80
2023/05/01 02:41:54;;;;;;;11.00;6.50;;;7.00;99.90;;;;;;5096823;28;20048;-80
2023/05/01 02:44:19;;;;;;;11.90;5.95;;;7.00;99.90;;;;;;5096557;28;20161;-80
2023/05/01 02:46:48;;;;;;;10.52;5.90;;;7.00;99.90;;;;;;5095272;28;20049;-80
2023/05/01 02:49:15;;;;;;;12.00;5.68;;;7.10;99.90;;;;;;5096479;28;20081;-80
2023/05/01 02:51:42;;;;;;;11.75;5.47;;;7.00;99.90;;;;;;5096484;28;20044;-80
2023/05/01 02:54:08;;;;;;;14.18;5.93;;;7.00;99.90;;;;;;5096413;28;20131;-80
2023/05/01 02:56:34;;;;;;;12.00;6.32;;;7.00;99.90;;;;;;5096702;28;20130;-80
2023/05/01 02:59:00;;;;;;;9.15;5.57;;;7.00;99.90;;;;;;5096440;28;20107;-80
2023/05/01 03:01:26;;;;;;;11.02;5.50;;;7.00;99.90;;;;;;5095356;28;20570;-80
2023/05/01 03:03:52;;;;;;;11.95;5.50;;;7.00;99.90;;;;;;5096263;28;20044;-80
2023/05/01 03:06:18;;;;;;;9.48;5.55;;;7.00;99.90;;;;;;5095021;28;20115;-80
2023/05/01 03:08:44;;;;;;;11.07;5.70;;;6.90;99.90;;;;;;5096168;28;20040;-80
2023/05/01 03:11:09;;;;;;;13.77;5.93;;;6.90;99.90;;;;;;5096225;28;20046;-80
2023/05/01 03:13:35;;;;;;;13.85;6.15;;;6.90;99.90;;;;;;5096114;28;20048;-80
2023/05/01 03:16:03;;;;;;;10.98;5.40;;;6.90;99.90;;;;;;5096160;28;20036;-80
2023/05/01 03:18:28;;;;;;;13.77;7.07;;;6.90;99.90;;;;;;5096132;28;20036;-80
2023/05/01 03:20:55;;;;;;;11.50;6.60;;;6.90;99.90;;;;;;5094735;28;20050;-80
2023/05/01 03:23:22;;;;;;;14.75;6.63;;;6.90;99.90;;;;;;5095616;28;20036;-80
2023/05/01 03:25:48;;;;;;;12.30;6.10;;;6.90;99.90;;;;;;5095731;28;20403;-80
2023/05/01 03:28:15;;;;;;;13.90;6.32;;;6.90;99.90;;;;;;5095740;28;20047;-81
2023/05/01 03:30:41;;;;;;;14.07;5.68;;;6.90;99.90;;;;;;5095758;28;20040;-80
2023/05/01 03:33:06;;;;;;;11.48;6.00;;;6.80;99.90;;;;;;5095946;28;20369;-80
2023/05/01 03:35:32;;;;;;;11.70;6.22;;;6.80;99.90;;;;;;5095587;28;20044;-82
2023/05/01 03:37:58;;;;;;;12.13;6.00;;;6.80;99.90;;;;;;5094619;28;20051;-80
2023/05/01 03:40:23;;;;;;;10.73;5.60;;;6.80;99.90;;;;;;5095607;28;20040;-80
2023/05/01 03:42:49;;;;;;;12.10;5.60;;;6.80;99.90;;;;;;5095580;28;20059;-79
2023/05/01 03:45:15;;;;;;;14.10;5.80;;;6.70;99.90;;;;;;5095523;28;20044;-80
2023/05/01 03:47:40;;;;;;;15.57;5.85;;;6.70;99.90;;;;;;5094367;28;20039;-81
2023/05/01 03:50:07;;;;;;;14.13;5.60;;;6.70;99.90;;;;;;5095369;28;20407;-80
2023/05/01 03:52:33;;;;;;;10.88;5.75;;;6.70;99.90;;;;;;5095245;28;20120;-80
2023/05/01 03:54:59;;;;;;;11.93;6.35;;;6.60;99.90;;;;;;5093752;28;20127;-80
2023/05/01 03:57:26;;;;;;;12.23;6.25;;;6.60;99.90;;;;;;5095122;28;20040;-80
2023/05/01 03:59:52;;;;;;;12.25;5.95;;;6.60;99.90;;;;;;5093770;28;20093;-80
2023/05/01 04:02:17;;;;;;;11.38;5.68;;;6.60;99.90;;;;;;5093321;28;20044;-80
2023/05/01 04:04:43;;;;;;;12.38;5.80;;;6.60;99.90;;;;;;5093738;28;20032;-80
2023/05/01 04:07:09;;;;;;;12.68;6.20;;;6.50;99.90;;;;;;5094668;28;20130;-79
2023/05/01 04:09:35;;;;;;;13.93;6.70;;;6.50;99.90;;;;;;5094950;28;20054;-79
2023/05/01 04:12:01;;;;;;;13.10;7.07;;;6.50;99.90;;;;;;5094622;28;20056;-80
2023/05/01 04:14:27;;;;;;;13.60;6.65;;;6.50;99.90;;;;;;5093598;28;20040;-80
2023/05/01 04:16:52;;;;;;;15.00;6.03;;;6.40;99.90;;;;;;5094583;28;20059;-80
2023/05/01 04:19:18;;;;;;;13.43;7.07;;;6.40;99.90;;;;;;5094654;28;20036;-80
2023/05/01 04:21:44;;;;;;;11.88;5.85;;;6.40;99.90;;;;;;5094803;28;20071;-80
2023/05/01 04:24:10;;;;;;;10.35;6.07;;;6.40;99.90;;;;;;5094432;28;20105;-80
2023/05/01 04:26:38;;;;;;;12.13;6.32;;;6.40;99.90;;;;;;5094382;28;20415;-80
2023/05/01 04:29:04;;;;;;;11.82;6.43;;;6.40;99.90;;;;;;5094352;28;20467;-80
2023/05/01 04:31:30;;;;;;;14.13;6.45;;;6.40;99.90;;;;;;5094605;28;20050;-80
2023/05/01 04:33:55;;;;;;;13.95;6.93;;;6.40;99.90;;;;;;5092985;28;20040;-80
2023/05/01 04:36:21;;;;;;;14.02;7.60;;;6.40;99.90;;;;;;5094263;28;20047;-80
2023/05/01 04:38:47;;;;;;;14.88;6.60;;;6.40;99.90;;;;;;5094903;28;20032;-80
2023/05/01 04:41:13;;;;;;;12.18;6.72;;;6.40;99.90;;;;;;5093107;28;20441;-80
2023/05/01 04:43:39;;;;;;;15.40;7.30;;;6.50;99.90;;;;;;5094170;28;20480;-79
2023/05/01 04:46:04;;;;;;;12.55;6.10;;;6.50;99.90;;;;;;5092805;28;20040;-79
2023/05/01 04:48:30;;;;;;;15.23;6.22;;;6.40;99.90;;;;;;5094139;28;20043;-79
2023/05/01 04:50:56;;;;;;;13.65;6.28;;;6.50;99.90;;;;;;5094249;28;20044;-79
2023/05/01 04:53:22;;;;;;;10.32;6.07;;;6.60;99.90;;;;;;5093998;28;20406;-79
2023/05/01 04:55:47;;;;;;;13.68;6.25;;;6.60;99.90;;;;;;5093991;28;20055;-80
2023/05/01 04:58:13;;;;;;;13.40;7.28;;;6.70;99.90;;;;;;5094048;28;20414;-81
2023/05/01 05:00:39;;;;;;;11.52;6.82;;;6.70;99.90;;;;;;5093919;28;20036;-80
2023/05/01 05:03:05;;;;;;;11.20;7.43;;;6.80;99.90;;;;;;5092844;28;20048;-80
2023/05/01 05:05:31;;;;;;;16.00;6.70;;;6.90;99.90;;;;;;5092504;28;20059;-80
2023/05/01 05:07:57;;;;;;;13.65;6.90;;;7.00;99.90;;;;;;5094041;28;20032;-80
2023/05/01 05:10:22;;;;;;;15.13;7.07;;;7.10;99.90;;;;;;5093755;28;20052;-80
2023/05/01 05:12:48;;;;;;;12.90;7.35;;;7.20;99.90;;;;;;5093548;28;20128;-80
2023/05/01 05:15:15;;;;;;;13.70;6.90;;;7.20;99.90;;;;;;5093545;28;20055;-80
2023/05/01 05:17:40;;;;;;;13.88;7.38;;;7.30;99.90;;;;;;5093582;28;20051;-80
2023/05/01 05:20:07;;;;;;;13.55;6.60;;;7.30;99.90;;;;;;5093572;28;20117;-80
2023/05/01 05:22:36;;;;;;;11.57;6.72;;;7.40;99.90;;;;;;5094056;28;20040;-81
2023/05/01 05:25:05;;;;;;;12.20;6.50;;;7.40;99.90;;;;;;5093196;28;20051;-81
2023/05/01 05:27:36;;;;;;;13.13;6.95;;;7.40;99.90;;;;;;5092392;28;20091;-80
2023/05/01 05:30:04;;;;;;;14.73;6.97;;;7.50;99.90;;;;;;5093822;28;20032;-80
2023/05/01 05:32:30;;;;;;;16.10;7.15;;;7.50;99.90;;;;;;5092518;28;20044;-80
2023/05/01 05:34:56;;;;;;;14.38;6.75;;;7.50;99.90;;;;;;5093741;28;20436;-80
2023/05/01 05:37:24;;;;;;;11.25;6.38;;;7.60;99.90;;;;;;5093574;28;20086;-80
2023/05/01 05:39:50;;;;;;;13.50;7.00;;;7.60;99.90;;;;;;5092464;28;20044;-81
2023/05/01 05:42:16;;;;;;;14.68;6.35;;;7.70;99.90;;;;;;5093496;28;20070;-80
2023/05/01 05:44:41;;;;;;;12.98;6.82;;;7.70;99.90;;;;;;5092358;28;20127;-80
2023/05/01 05:47:07;;;;;;;11.95;6.68;;;7.80;99.90;;;;;;5092209;28;20044;-80
2023/05/01 05:49:33;;;;;;;17.30;8.05;;;7.80;99.90;;;;;;5092268;28;20051;-81
2023/05/01 05:51:58;;;;;;;14.30;6.97;;;7.90;99.90;;;;;;5093308;28;20082;-82
2023/05/01 05:54:24;;;;;;;17.70;7.28;;;7.90;99.90;;;;;;5093362;28;20117;-82
2023/05/01 05:56:50;;;;;;;15.18;7.30;;;8.00;99.90;;;;;;5093351;28;20036;-82
2023/05/01 05:59:15;;;;;;;15.32;6.90;;;8.10;99.90;;;;;;5093198;28;20395;-82
2023/05/01 06:01:41;;;;;;;12.63;6.88;;;8.40;99.90;;;;;;5092193;28;20056;-80
2023/05/01 06:04:07;;;;;;;10.95;6.80;;;8.50;99.90;;;;;;5093069;28;20406;-81
2023/05/01 06:06:33;;;;;;;12.85;6.47;;;8.70;99.90;;;;;;5093608;28;20032;-81
2023/05/01 06:08:59;;;;;;;15.13;7.18;;;8.90;99.90;;;;;;5093405;28;20399;-81
2023/05/01 06:11:26;;;;;;;17.20;7.35;;;9.10;99.90;;;;;;5093084;28;20483;-80
2023/05/01 06:13:52;;;;;;;11.00;6.68;;;9.30;99.90;;;;;;5091736;28;20055;-80
2023/05/01 06:16:18;;;;;;;13.43;7.22;;;9.40;99.90;;;;;;5093272;28;20044;-81
2023/05/01 06:18:44;;;;;;;13.93;6.68;;;9.60;99.90;;;;;;5093205;28;20040;-82
2023/05/01 06:21:09;;;;;;;12.20;7.50;;;9.70;99.90;;;;;;5092932;28;20502;-84
2023/05/01 06:23:35;;;;;;;12.95;6.70;;;9.80;99.90;;;;;;5092751;28;20052;-82
2023/05/01 06:26:01;;;;;;;17.40;6.38;;;10.00;99.90;;;;;;5091591;28;20078;-84
2023/05/01 06:28:27;;;;;;;12.90;6.88;;;10.10;99.90;;;;;;5082507;28;20052;-81
2023/05/01 06:30:52;;;;;;;10.75;6.25;;;10.20;99.90;;;;;;5072546;28;20052;-82
2023/05/01 06:33:18;;;;;;;14.05;7.05;;;10.50;99.90;;;;;;5072615;28;20052;-80
2023/05/01 06:35:44;;;;;;;12.23;6.68;;;10.70;99.90;;;;;;5071161;28;20128;-81
2023/05/01 06:38:10;;;;;;;11.98;6.22;;;10.80;99.90;;;;;;5075873;28;20055;-83
2023/05/01 06:40:35;;;;;;;12.48;6.70;;;11.00;99.90;;;;;;5075072;28;20396;-83
2023/05/01 06:43:02;;;;;;;12.02;6.72;;;11.10;99.90;;;;;;5074694;28;20041;-82
2023/05/01 06:45:27;;;;;;;14.07;6.82;;;11.20;99.90;;;;;;5074594;28;20494;-82
2023/05/01 06:47:53;;;;;;;10.90;6.45;;;11.30;99.90;;;;;;5074906;28;20511;-84
2023/05/01 06:50:19;;;;;;;13.57;6.15;;;11.40;99.90;;;;;;5074868;28;20041;-81
2023/05/01 06:52:44;;;;;;;13.57;6.63;;;11.40;99.90;;;;;;5075987;28;20063;-81
2023/05/01 06:55:11;;;;;;;10.38;6.28;;;11.60;99.90;;;;;;5075768;28;20480;-81
2023/05/01 06:57:38;;;;;;;11.63;6.03;;;11.70;99.90;;;;;;5076003;28;20041;-81
2023/05/01 07:00:05;;;;;;;11.70;6.93;;;11.80;99.90;;;;;;5075863;28;20122;-81
2023/05/01 07:02:31;;;;;;;11.18;6.30;;;12.10;99.90;;;;;;5075898;28;20036;-81
2023/05/01 07:04:56;;;;;;;11.57;6.15;;;12.30;99.90;;;;;;5074528;28;20391;-82
2023/05/01 07:07:22;;;;;;;15.65;6.78;;;12.40;99.90;;;;;;5075903;28;20040;-81
2023/05/01 07:09:48;;;;;;;10.82;6.07;;;12.50;99.90;;;;;;5074302;28;20052;-81
2023/05/01 07:12:13;;;;;;;12.65;5.88;;;12.60;99.90;;;;;;5075336;28;20043;-84
2023/05/01 07:14:40;;;;;;;13.23;6.15;;;12.70;99.90;;;;;;5075371;28;20123;-80
2023/05/01 07:17:07;;;;;;;10.15;5.88;;;12.80;99.90;;;;;;5075238;28;20450;-84
2023/05/01 07:19:34;;;;;;;10.60;6.63;;;12.80;99.90;;;;;;5075152;28;20399;-84
2023/05/01 07:22:00;;;;;;;11.93;6.13;;;12.90;99.90;;;;;;5075366;28;20045;-85
2023/05/01 07:24:25;;;;;;;12.63;7.03;;;12.90;99.90;;;;;;5073769;28;20060;-84
2023/05/01 07:26:51;;;;;;;10.82;6.32;;;12.90;99.90;;;;;;5075252;28;20048;-84
2023/05/01 07:29:17;;;;;;;13.02;6.45;;;13.00;99.90;;;;;;5075152;28;20052;-83
2023/05/01 07:31:43;;;;;;;11.75;5.78;;;13.10;99.90;;;;;;5073669;28;20055;-82
2023/05/01 07:34:09;;;;;;;12.25;6.00;;;13.30;99.90;;;;;;5075262;28;20137;-82
2023/05/01 07:36:34;;;;;;;9.75;5.95;;;13.50;99.90;;;;;;5074982;28;20084;-83
2023/05/01 07:39:00;;;;;;;9.93;5.20;;;13.70;99.90;;;;;;5074926;28;20066;-83
2023/05/01 07:41:26;;;;;;;13.35;5.65;;;13.80;99.90;;;;;;5075053;28;20040;-82
2023/05/01 07:43:51;;;;;;;8.45;4.60;;;13.90;99.90;;;;;;5075034;28;20499;-82
2023/05/01 07:46:17;;;;;;;8.95;5.05;;;14.10;99.90;;;;;;5073449;28;20048;-83
2023/05/01 07:48:43;;;;;;;12.52;5.28;;;14.10;99.90;;;;;;5073278;28;20056;-83
2023/05/01 07:51:08;;;;;;;11.93;4.80;;;14.10;99.90;;;;;;5073258;28;20405;-84
2023/05/01 07:53:34;;;;;;;9.73;4.55;;;14.20;99.90;;;;;;5074639;28;20119;-86
2023/05/01 07:56:09;;;;;;;15.30;5.15;;;14.30;99.90;;;;;;5074226;28;20106;-83
2023/05/01 07:58:36;;;;;;;10.68;4.88;;;14.30;99.90;;;;;;5074455;28;20541;-81
2023/05/01 08:01:02;;;;;;;12.73;5.68;;;14.50;99.90;;;;;;5074546;28;20051;-81
2023/05/01 08:03:31;;;;;;;9.52;5.07;;;14.50;99.90;;;;;;5074741;28;20048;-83
2023/05/01 08:05:57;;;;;;;11.10;4.68;;;14.70;99.90;;;;;;5074537;28;20044;-83
2023/05/01 08:08:23;;;;;;;7.63;5.43;;;14.60;99.90;;;;;;5074327;28;20036;-83
2023/05/01 08:10:50;;;;;;;10.65;5.55;;;14.70;99.90;;;;;;5074467;28;20109;-86
2023/05/01 08:13:15;;;;;;;9.80;5.32;;;15.00;99.90;;;;;;5074481;28;20044;-83
2023/05/01 08:15:41;;;;;;;12.98;5.70;;;15.00;99.90;;;;;;5074069;28;20048;-82
2023/05/01 08:18:10;;;;;;;9.77;5.68;;;15.10;99.90;;;;;;5073154;28;20053;-83
2023/05/01 08:20:36;;;;;;;11.48;6.15;;;15.30;99.90;;;;;;5073989;28;20036;-83
2023/05/01 08:23:02;;;;;;;8.85;5.80;;;15.40;99.90;;;;;;5072789;28;20124;-83
2023/05/01 08:25:30;;;;;;;9.60;5.13;;;15.60;99.90;;;;;;5072452;28;20057;-83
2023/05/01 08:27:56;;;;;;;15.40;6.50;;;15.70;99.90;;;;;;5074154;28;20044;-83
2023/05/01 08:30:22;;;;;;;13.43;6.28;;;15.70;99.90;;;;;;5073894;28;20067;-85
2023/05/01 08:32:47;;;;;;;12.88;6.00;;;15.70;99.90;;;;;;5073838;28;20121;-84
2023/05/01 08:35:13;;;;;;;10.93;5.32;;;15.80;99.90;;;;;;5072638;28;20718;-85
2023/05/01 08:37:38;;;;;;;12.13;4.90;;;15.70;99.90;;;;;;5072743;28;20052;-85
2023/05/01 08:40:07;;;;;;;12.68;5.50;;;15.70;99.90;;;;;;5072718;28;20048;-84
2023/05/01 08:42:35;;;;;;;10.35;5.28;;;15.80;99.90;;;;;;5106429;28;20127;-84
2023/05/01 08:45:02;;;;;;;10.32;5.35;;;15.90;99.90;;;;;;5073927;28;20051;-84
2023/05/01 08:47:29;;;;;;;9.95;5.70;;;16.00;99.90;;;;;;5073887;28;20047;-83
2023/05/01 08:49:56;;;;;;;13.35;5.43;;;15.90;99.90;;;;;;5073588;28;20067;-84
2023/05/01 08:52:25;;;;;;;9.48;4.97;;;16.00;99.90;;;;;;5073463;28;20119;-85
2023/05/01 08:54:55;;;;;;;10.23;5.00;;;16.10;99.90;;;;;;5072245;28;20048;-82
2023/05/01 08:57:21;;;;;;;9.50;4.55;;;16.10;99.90;;;;;;5073693;28;20044;-83
2023/05/01 08:59:49;;;;;;;12.73;5.20;;;16.10;99.90;;;;;;5071763;28;20373;-84
2023/05/01 09:02:16;;;;;;;12.90;4.90;;;16.30;99.90;;;;;;5073373;28;20034;-82
2023/05/01 09:04:42;;;;;;;11.10;4.63;;;16.50;99.90;;;;;;5073429;28;20118;-82
2023/05/01 09:07:08;;;;;;;7.32;4.50;;;16.70;99.90;;;;;;5073540;28;20476;-81
2023/05/01 09:09:35;;;;;;;10.60;4.88;;;16.80;99.90;;;;;;5073598;28;20049;-79
2023/05/01 09:12:22;;;;;;;10.68;4.07;;;16.90;99.90;;;;;;5073550;28;20045;-79
2023/05/01 09:14:49;;;;;;;7.40;3.90;;;17.00;99.90;;;;;;5072300;28;20036;-84
2023/05/01 09:17:15;;;;;;;9.93;5.15;;;17.00;99.90;;;;;;5105737;28;20494;-85
2023/05/01 09:19:41;;;;;;;9.13;4.00;;;17.20;99.90;;;;;;5073226;28;20048;-89
2023/05/01 09:22:08;;;;;;;9.13;3.65;;;17.40;99.90;;;;;;5073521;28;20041;-83
2023/05/01 09:24:37;;;;;;;8.80;4.10;;;17.50;99.90;;;;;;5073043;28;20055;-82
2023/05/01 09:27:02;;;;;;;6.22;4.43;;;17.20;99.90;;;;;;5072127;28;20052;-82
2023/05/01 09:29:39;;;;;;;11.90;5.80;;;17.30;99.90;;;;;;5087554;28;20403;-81
2023/05/01 09:32:28;;;;;;;15.48;6.25;;;17.40;99.90;;;;;;5088619;28;20554;-83
2023/05/01 09:35:07;;;;;;;9.13;5.35;;;17.40;99.90;;;;;;5087239;28;20512;-82
2023/05/01 09:37:33;;;;;;;11.32;6.22;;;17.60;99.90;;;;;;5088841;28;20044;-83
2023/05/01 09:40:06;;;;;;;11.70;5.90;;;17.80;99.90;;;;;;5088537;28;20044;-83
2023/05/01 09:42:33;;;;;;;10.20;5.78;;;17.90;99.90;;;;;;5088318;28;20498;-83
2023/05/01 09:45:00;;;;;;;11.35;5.68;;;17.90;99.90;;;;;;5089384;28;20065;-83
2023/05/01 09:47:30;;;;;;;11.18;5.63;;;18.10;99.90;;;;;;5088601;28;20044;-83
2023/05/01 09:49:58;;;;;;;12.73;6.53;;;18.20;99.90;;;;;;5087344;28;20068;-81
2023/05/01 09:52:32;;;;;;;11.73;5.70;;;18.20;99.90;;;;;;5088995;28;20040;-82
2023/05/01 09:55:17;;;;;;;12.45;5.60;;;18.30;99.90;;;;;;5089307;28;20048;-82
2023/05/01 09:57:45;;;;;;;12.85;5.80;;;18.30;99.90;;;;;;5088121;28;20437;-84
2023/05/01 10:00:13;;;;;;;11.25;5.32;;;18.30;99.90;;;;;;5089651;28;20071;-83
2023/05/01 10:02:40;;;;;;;11.77;5.07;;;18.30;99.90;;;;;;5088825;28;20090;-83
2023/05/01 10:05:08;;;;;;;10.13;4.68;;;18.30;99.90;;;;;;5087424;28;20101;-83
2023/05/01 10:07:33;;;;;;;11.07;4.50;;;18.30;99.90;;;;;;5088887;28;20039;-83
2023/05/01 10:10:15;;;;;;;9.73;3.58;;;18.50;99.90;;;;;;5089033;28;20040;-83
2023/05/01 10:12:41;;;;;;;6.00;3.30;;;18.70;99.90;;;;;;5092097;28;20039;-83
2023/05/01 10:15:08;;;;;;;9.57;3.53;;;18.80;99.90;;;;;;5092571;28;20047;-83
2023/05/01 10:17:34;;;;;;;7.80;3.08;;;18.90;99.90;;;;;;5091112;28;20105;-83
2023/05/01 10:20:00;;;;;;;7.57;3.88;;;19.10;99.90;;;;;;5093170;28;20046;-82
2023/05/01 10:22:26;;;;;;;7.88;3.80;;;19.00;99.90;;;;;;5091222;28;20047;-83
2023/05/01 10:24:55;;;;;;;9.02;3.88;;;19.10;99.90;;;;;;5092152;28;20060;-82
2023/05/01 10:27:23;;;;;;;6.78;3.22;;;19.00;99.90;;;;;;5092337;28;20453;-83
2023/05/01 10:29:51;;;;;;;8.05;4.70;;;19.00;99.90;;;;;;5092426;28;20077;-83
2023/05/01 10:32:17;;;;;;;10.55;5.78;;;18.80;99.90;;;;;;5092340;28;20059;-84
2023/05/01 10:34:48;;;;;;;11.25;5.93;;;18.90;99.90;;;;;;5092878;28;20391;-83
2023/05/01 10:37:27;;;;;;;13.65;6.40;;;18.90;99.90;;;;;;5091299;28;20048;-83
2023/05/01 10:39:53;;;;;;;12.80;6.60;;;19.10;99.90;;;;;;5092895;28;20039;-83
2023/05/01 10:42:18;;;;;;;13.80;5.97;;;19.10;99.90;;;;;;5091709;28;20149;-83
2023/05/01 10:44:46;;;;;;;13.13;5.72;;;19.20;99.90;;;;;;5091990;28;20139;-83
2023/05/01 10:47:26;;;;;;;10.93;6.22;;;19.00;99.90;;;;;;5092168;28;20574;-83
2023/05/01 10:50:16;;;;;;;7.32;4.82;;;18.90;99.90;;;;;;5092569;28;20048;-84
2023/05/01 10:53:10;;;;;;;10.32;5.45;;;19.10;99.90;;;;;;5091829;28;20121;-83
2023/05/01 10:55:46;;;;;;;11.00;6.47;;;19.10;99.90;;;;;;5086473;28;20190;-83
2023/05/01 10:58:32;;;;;;;12.18;7.53;;;19.30;99.90;;;;;;5092281;28;20055;-83
2023/05/01 11:01:30;;;;;;;14.93;6.60;;;19.40;99.90;;;;;;5091533;28;20048;-83
2023/05/01 11:03:57;;;;;;;14.80;6.63;;;19.30;99.90;;;;;;5090792;28;20048;-83
2023/05/01 11:06:23;;;;;;;13.93;7.47;;;19.30;99.90;;;;;;5090368;28;20059;-83
2023/05/01 11:08:49;;;;;;;13.05;7.32;;;19.30;99.90;;;;;;5089926;28;20433;-82
2023/05/01 11:11:24;;;;;;;12.27;7.47;;;19.30;99.90;;;;;;5092221;28;20073;-82
2023/05/01 11:14:03;;;;;;;10.80;7.00;;;19.10;99.90;;;;;;5090587;28;20039;-82
2023/05/01 11:16:44;;;;;;;13.35;6.78;;;19.10;99.90;;;;;;5092125;28;20048;-82
2023/05/01 11:19:19;;;;;;;12.68;7.25;;;19.30;99.90;;;;;;5091262;28;20476;-81
2023/05/01 11:21:46;;;;;;;15.43;8.70;;;19.00;99.90;;;;;;5094923;28;20044;-82
2023/05/01 11:24:11;;;;;;;16.95;8.38;;;19.00;99.90;;;;;;5095236;28;20048;-82
2023/05/01 11:26:41;;;;;;;16.52;8.88;;;19.20;99.90;;;;;;5095849;28;20047;-82
2023/05/01 11:29:09;;;;;;;14.85;8.82;;;19.10;99.90;;;;;;5095610;28;20476;-82
2023/05/01 11:31:35;;;;;;;17.38;9.52;;;18.90;99.90;;;;;;5094521;28;20073;-83
2023/05/01 11:34:02;;;;;;;17.23;9.02;;;19.10;99.90;;;;;;5095514;28;20044;-83
2023/05/01 11:36:28;;;;;;;14.75;9.48;;;19.00;99.90;;;;;;5095418;28;20044;-83
2023/05/01 11:38:57;;;;;;;23.65;10.95;;;19.10;99.90;;;;;;5095448;28;20040;-83
2023/05/01 11:41:24;;;;;;;16.40;9.90;;;19.20;99.90;;;;;;5095271;28;20035;-82
2023/05/01 11:43:58;;;;;;;15.50;9.38;;;19.00;99.90;;;;;;5094014;28;20051;-80
2023/05/01 11:46:26;;;;;;;20.15;9.60;;;18.90;99.90;;;;;;5094192;28;20048;-80
2023/05/01 11:48:56;;;;;;;17.08;8.15;;;18.90;99.90;;;;;;5095381;28;20047;-80
2023/05/01 11:51:23;;;;;;;15.43;7.00;;;18.90;99.90;;;;;;5095180;28;20044;-80
2023/05/01 11:53:59;;;;;;;17.33;6.97;;;18.90;99.90;;;;;;5093768;28;20048;-81
2023/05/01 11:56:26;;;;;;;15.57;6.38;;;19.00;99.90;;;;;;5093775;28;20052;-80
2023/05/01 11:58:53;;;;;;;16.52;6.90;;;19.00;99.90;;;;;;5095165;28;20047;-80
2023/05/01 12:01:18;;;;;;;15.95;6.88;;;19.10;99.90;;;;;;5093731;28;20086;-81
2023/05/01 12:03:44;;;;;;;13.77;6.72;;;19.00;99.90;;;;;;5095113;28;20036;-82
2023/05/01 12:06:14;;;;;;;13.82;6.57;;;19.10;99.90;;;;;;5090356;28;20051;-82
2023/05/01 12:08:46;;;;;;;14.65;6.25;;;19.10;99.90;;;;;;5089972;28;20180;-83
2023/05/01 12:11:12;;;;;;;12.73;5.85;;;19.20;99.90;;;;;;5089701;28;20501;-83
2023/05/01 12:13:39;;;;;;;12.10;5.05;;;19.10;99.90;;;;;;5091055;28;20032;-82
2023/05/01 12:16:05;;;;;;;13.55;5.50;;;19.10;99.90;;;;;;5090227;28;20568;-82
2023/05/01 12:18:31;;;;;;;14.15;6.88;;;19.00;99.90;;;;;;5094589;28;20501;-82
2023/05/01 12:20:57;;;;;;;8.65;4.50;;;19.00;99.90;;;;;;5094643;28;20561;-83
2023/05/01 12:23:34;;;;;;;11.73;4.47;;;19.20;99.90;;;;;;5094301;28;20250;-82
2023/05/01 12:26:02;;;;;;;11.82;4.95;;;19.30;99.90;;;;;;5094605;28;20130;-81
2023/05/01 12:28:28;;;;;;;9.43;4.25;;;19.30;99.90;;;;;;5094567;28;20047;-81
2023/05/01 12:31:00;;;;;;;8.73;4.10;;;19.20;99.90;;;;;;5094431;28;20047;-82
2023/05/01 12:33:26;;;;;;;11.68;4.50;;;19.00;99.90;;;;;;5092493;28;20057;-82
2023/05/01 12:35:52;;;;;;;10.50;4.47;;;19.00;99.90;;;;;;5093671;28;20047;-80
2023/05/01 12:38:22;;;;;;;11.52;4.68;;;19.10;99.90;;;;;;5094561;28;20539;-80
2023/05/01 12:41:01;;;;;;;9.18;4.95;;;18.90;99.90;;;;;;5094357;28;20093;-79
2023/05/01 12:43:34;;;;;;;11.07;4.80;;;18.80;99.90;;;;;;5094270;28;20387;-80
2023/05/01 12:46:01;;;;;;;10.38;5.00;;;18.40;99.90;;;;;;5094674;28;20040;-80
2023/05/01 12:48:28;;;;;;;11.90;6.38;;;18.50;99.90;;;;;;5094161;28;20093;-80